Time;durP1;ratioP1;P1;durP2;ratioP2;P2;SDS_P1;SDS_P2;PMS_P1;PMS_P2;Temp;Humidity;BMP_temperature;BMP_pressure;BME280_temperature;BME280_humidity;BME280_pressure;Samples;Min_cycle;Max_cycle;Signal;HPM_P1;HPM_P2
2023/12/24 00:00:46;;;;;;;11.37;3.90;;;9.10;99.90;;;;;;5026857;28;20314;-66
2023/12/24 00:03:12;;;;;;;10.63;3.63;;;9.10;99.90;;;;;;5024255;28;20049;-66
2023/12/24 00:05:38;;;;;;;13.03;4.17;;;9.10;99.90;;;;;;5023315;28;20280;-66
2023/12/24 00:08:03;;;;;;;13.67;4.50;;;9.10;99.90;;;;;;5024300;28;20030;-66
2023/12/24 00:10:29;;;;;;;12.85;4.38;;;9.10;99.90;;;;;;5026963;28;20034;-66
2023/12/24 00:12:55;;;;;;;10.82;3.85;;;9.10;99.90;;;;;;5028415;28;20042;-66
2023/12/24 00:15:21;;;;;;;17.13;4.43;;;9.10;99.90;;;;;;5010885;28;20099;-66
2023/12/24 00:17:46;;;;;;;14.82;4.25;;;9.10;99.90;;;;;;5028569;28;20053;-66
2023/12/24 00:20:12;;;;;;;8.43;3.30;;;9.10;99.90;;;;;;5028631;28;20575;-66
2023/12/24 00:22:38;;;;;;;14.87;4.27;;;9.10;99.90;;;;;;5028098;28;20038;-66
2023/12/24 00:25:04;;;;;;;15.32;3.33;;;9.10;99.90;;;;;;5026942;28;20120;-67
2023/12/24 00:27:29;;;;;;;16.65;4.15;;;9.10;99.90;;;;;;5028331;28;20116;-66
2023/12/24 00:29:55;;;;;;;15.53;3.63;;;9.10;99.90;;;;;;5025407;28;20041;-66
2023/12/24 00:32:20;;;;;;;17.13;3.67;;;9.10;99.90;;;;;;5023764;28;20459;-66
2023/12/24 00:34:46;;;;;;;16.67;3.90;;;9.10;99.90;;;;;;5018665;28;20049;-66
2023/12/24 00:37:11;;;;;;;17.30;3.57;;;9.10;99.90;;;;;;5022328;28;20047;-66
2023/12/24 00:39:37;;;;;;;10.30;3.60;;;9.10;99.90;;;;;;5028363;28;20529;-66
2023/12/24 00:42:03;;;;;;;13.50;3.30;;;9.10;99.90;;;;;;5010482;28;20132;-66
2023/12/24 00:44:29;;;;;;;9.20;2.90;;;9.10;99.90;;;;;;5010369;28;20299;-66
2023/12/24 00:46:55;;;;;;;14.48;3.55;;;9.10;99.90;;;;;;5027217;28;20057;-66
2023/12/24 00:49:21;;;;;;;9.95;3.58;;;9.20;99.90;;;;;;5028672;28;20103;-66
2023/12/24 00:51:47;;;;;;;15.33;3.40;;;9.10;99.90;;;;;;5030603;28;20045;-66
2023/12/24 00:54:13;;;;;;;9.33;3.10;;;9.10;99.90;;;;;;5030872;28;20826;-66
2023/12/24 00:56:38;;;;;;;10.68;3.50;;;9.10;99.90;;;;;;5029881;28;20069;-67
2023/12/24 00:59:04;;;;;;;12.95;3.40;;;9.20;99.90;;;;;;5018599;28;20108;-66
2023/12/24 01:01:29;;;;;;;20.87;4.17;;;9.20;99.90;;;;;;5018158;28;20037;-67
2023/12/24 01:03:55;;;;;;;12.20;3.23;;;9.20;99.90;;;;;;5019685;28;20318;-67
2023/12/24 01:06:21;;;;;;;11.40;3.40;;;9.20;99.90;;;;;;5021022;28;20045;-67
2023/12/24 01:08:46;;;;;;;19.93;3.43;;;9.20;99.90;;;;;;5035558;28;20100;-66
2023/12/24 01:11:12;;;;;;;11.60;3.57;;;9.20;99.90;;;;;;5034860;28;20463;-66
2023/12/24 01:13:38;;;;;;;14.82;3.28;;;9.20;99.90;;;;;;5031133;28;20287;-67
2023/12/24 01:16:04;;;;;;;12.13;3.83;;;9.20;99.90;;;;;;5030985;28;20424;-66
2023/12/24 01:18:30;;;;;;;10.40;3.80;;;9.20;99.90;;;;;;5029905;28;20235;-66
2023/12/24 01:20:56;;;;;;;13.47;3.17;;;9.20;99.90;;;;;;5030339;28;20420;-66
2023/12/24 01:23:22;;;;;;;13.23;3.35;;;9.20;99.90;;;;;;5013241;28;20308;-66
2023/12/24 01:25:48;;;;;;;11.27;3.40;;;9.20;99.90;;;;;;5031386;28;20164;-66
2023/12/24 01:28:14;;;;;;;9.38;3.05;;;9.20;99.90;;;;;;5030094;28;20116;-66
2023/12/24 01:30:40;;;;;;;7.38;2.70;;;9.20;99.90;;;;;;5031218;28;20049;-66
2023/12/24 01:33:06;;;;;;;14.35;3.55;;;9.20;99.90;;;;;;5026934;28;20045;-66
2023/12/24 01:35:32;;;;;;;13.32;4.20;;;9.20;99.90;;;;;;5029533;28;20068;-66
2023/12/24 01:37:57;;;;;;;10.43;3.35;;;9.20;99.90;;;;;;5025146;28;20056;-66
2023/12/24 01:40:23;;;;;;;12.07;2.90;;;9.20;99.90;;;;;;5029720;28;20119;-66
2023/12/24 01:42:49;;;;;;;13.13;3.20;;;9.20;99.90;;;;;;5015798;28;20050;-66
2023/12/24 01:45:14;;;;;;;13.10;3.03;;;9.30;99.90;;;;;;5025855;28;20418;-66
2023/12/24 01:47:42;;;;;;;7.80;2.97;;;9.20;99.90;;;;;;5028000;28;20034;-66
2023/12/24 01:50:08;;;;;;;8.95;2.75;;;9.20;99.90;;;;;;5027313;28;20053;-66
2023/12/24 01:52:35;;;;;;;11.05;2.22;;;9.30;99.90;;;;;;5020802;28;20120;-66
2023/12/24 01:55:01;;;;;;;11.00;2.17;;;9.30;99.90;;;;;;5029359;28;20064;-66
2023/12/24 01:57:30;;;;;;;10.57;2.78;;;9.30;99.90;;;;;;5031012;28;20041;-66
2023/12/24 01:59:57;;;;;;;11.35;2.45;;;9.30;99.90;;;;;;5030286;28;20033;-66
2023/12/24 02:02:27;;;;;;;9.20;3.25;;;9.30;99.90;;;;;;5029817;28;20037;-66
2023/12/24 02:04:52;;;;;;;13.13;2.25;;;9.30;99.90;;;;;;5026923;28;20038;-66
2023/12/24 02:07:19;;;;;;;12.23;2.35;;;9.30;99.90;;;;;;5024370;28;20036;-66
2023/12/24 02:09:44;;;;;;;;;;;9.30;99.90;;;;;;5016193;28;20036;-66
2023/12/24 02:12:10;;;;;;;6.93;2.17;;;9.30;99.90;;;;;;5028616;28;20345;-66
2023/12/24 02:14:36;;;;;;;10.87;2.47;;;9.30;99.90;;;;;;5026492;28;20037;-66
2023/12/24 02:17:04;;;;;;;14.95;2.97;;;9.30;99.90;;;;;;5027304;28;20068;-66
2023/12/24 02:19:29;;;;;;;13.85;2.53;;;9.30;99.90;;;;;;5001730;28;20061;-66
2023/12/24 02:21:55;;;;;;;13.20;2.47;;;9.30;99.90;;;;;;5027562;28;20053;-66
2023/12/24 02:24:21;;;;;;;10.10;1.90;;;9.30;99.90;;;;;;5029367;28;20045;-66
2023/12/24 02:26:49;;;;;;;8.80;2.50;;;9.20;99.90;;;;;;5028412;28;20057;-66
2023/12/24 02:29:28;;;;;;;8.45;2.35;;;9.30;99.90;;;;;;5022505;28;20421;-66
2023/12/24 02:32:02;;;;;;;7.90;2.13;;;9.20;99.90;;;;;;5028545;28;20046;-66
2023/12/24 02:34:29;;;;;;;4.70;1.90;;;9.30;99.90;;;;;;5022279;28;20724;-66
2023/12/24 02:36:56;;;;;;;8.60;2.45;;;9.20;99.90;;;;;;5028128;28;20159;-66
2023/12/24 02:39:21;;;;;;;7.05;2.13;;;9.20;99.90;;;;;;5024510;28;20041;-66
2023/12/24 02:41:47;;;;;;;12.97;2.60;;;9.20;99.90;;;;;;5026507;28;20041;-66
2023/12/24 02:44:13;;;;;;;8.77;2.55;;;9.20;99.90;;;;;;5026963;28;20497;-66
2023/12/24 02:46:38;;;;;;;5.25;2.03;;;9.20;99.90;;;;;;5028378;28;20064;-66
2023/12/24 02:49:04;;;;;;;6.33;2.33;;;9.20;99.90;;;;;;5028412;28;20034;-66
2023/12/24 02:51:29;;;;;;;4.20;1.97;;;9.20;99.90;;;;;;5027014;28;20579;-66
2023/12/24 02:53:55;;;;;;;6.30;2.10;;;9.20;99.90;;;;;;5027226;28;20050;-66
2023/12/24 02:56:20;;;;;;;11.53;2.93;;;9.20;99.90;;;;;;5028612;28;20135;-66
2023/12/24 02:58:46;;;;;;;7.10;2.33;;;9.30;99.90;;;;;;5026653;28;20568;-66
2023/12/24 03:01:12;;;;;;;6.90;2.37;;;9.20;99.90;;;;;;5025024;28;20132;-66
2023/12/24 03:03:37;;;;;;;6.80;3.13;;;9.30;99.90;;;;;;5025276;28;20296;-66
2023/12/24 03:06:03;;;;;;;5.73;2.90;;;9.30;99.90;;;;;;5025911;28;20441;-66
2023/12/24 03:08:29;;;;;;;8.82;3.38;;;9.20;99.90;;;;;;5029378;28;20044;-67
2023/12/24 03:10:54;;;;;;;7.00;3.07;;;9.30;99.90;;;;;;5027127;28;20041;-66
2023/12/24 03:13:20;;;;;;;11.37;2.50;;;9.30;99.90;;;;;;5021915;28;20111;-66
2023/12/24 03:15:45;;;;;;;7.47;3.40;;;9.30;99.90;;;;;;5021952;28;20316;-66
2023/12/24 03:18:11;;;;;;;4.63;2.10;;;9.20;99.90;;;;;;5027614;28;20041;-66
2023/12/24 03:20:37;;;;;;;4.27;2.27;;;9.30;99.90;;;;;;5020679;28;20335;-66
2023/12/24 03:23:03;;;;;;;6.57;2.90;;;9.30;99.90;;;;;;5027086;28;20068;-66
2023/12/24 03:25:28;;;;;;;4.35;2.55;;;9.30;99.90;;;;;;5021784;28;20069;-66
2023/12/24 03:27:54;;;;;;;10.43;3.60;;;9.30;99.90;;;;;;5028431;28;20084;-66
2023/12/24 03:30:20;;;;;;;7.18;2.67;;;9.30;99.90;;;;;;5024322;28;20038;-66
2023/12/24 03:32:45;;;;;;;5.87;2.37;;;9.30;99.90;;;;;;5024054;28;20037;-66
2023/12/24 03:35:11;;;;;;;9.83;2.97;;;9.20;99.90;;;;;;5022340;28;20034;-66
2023/12/24 03:37:37;;;;;;;5.22;2.38;;;9.30;99.90;;;;;;5022557;28;20096;-66
2023/12/24 03:40:02;;;;;;;6.73;2.30;;;9.30;99.90;;;;;;5026158;28;20061;-66
2023/12/24 03:42:28;;;;;;;5.70;2.47;;;9.30;99.90;;;;;;5025730;28;20276;-66
2023/12/24 03:44:54;;;;;;;6.03;2.08;;;9.30;99.90;;;;;;5026619;28;20103;-66
2023/12/24 03:47:19;;;;;;;3.43;1.93;;;9.30;99.90;;;;;;5024741;28;20033;-66
2023/12/24 03:49:45;;;;;;;5.07;2.43;;;9.30;99.90;;;;;;5025567;28;20284;-66
2023/12/24 03:52:10;;;;;;;5.57;2.27;;;9.30;99.90;;;;;;5031991;28;20045;-66
2023/12/24 03:54:36;;;;;;;7.70;2.43;;;9.30;99.90;;;;;;5024348;28;20073;-67
2023/12/24 03:57:01;;;;;;;8.83;2.40;;;9.30;99.90;;;;;;5027646;28;20045;-66
2023/12/24 03:59:28;;;;;;;2.38;2.17;;;9.30;99.90;;;;;;5023583;28;20042;-66
2023/12/24 04:01:54;;;;;;;7.47;2.53;;;9.40;99.90;;;;;;5029084;28;20159;-66
2023/12/24 04:04:20;;;;;;;9.90;2.37;;;9.40;99.90;;;;;;5023727;28;20076;-66
2023/12/24 04:06:46;;;;;;;7.57;2.73;;;9.40;99.90;;;;;;5026308;28;20173;-66
2023/12/24 04:09:12;;;;;;;5.38;2.28;;;9.40;99.90;;;;;;5025433;28;20418;-66
2023/12/24 04:11:37;;;;;;;5.63;1.83;;;9.40;99.90;;;;;;5022873;28;20029;-66
2023/12/24 04:14:03;;;;;;;4.17;2.67;;;9.40;99.90;;;;;;5024305;28;20291;-67
2023/12/24 04:16:28;;;;;;;5.53;1.87;;;9.40;99.90;;;;;;5026584;28;20132;-66
2023/12/24 04:18:54;;;;;;;5.00;2.07;;;9.40;99.90;;;;;;5028156;28;20405;-66
2023/12/24 04:21:19;;;;;;;5.60;1.90;;;9.40;99.90;;;;;;5025413;28;20128;-66
2023/12/24 04:23:45;;;;;;;6.23;2.23;;;9.50;99.90;;;;;;5025552;28;20051;-67
2023/12/24 04:26:11;;;;;;;7.77;1.90;;;9.50;99.90;;;;;;5026042;28;20065;-66
2023/12/24 04:28:36;;;;;;;3.85;1.83;;;9.50;99.90;;;;;;5030043;28;20512;-66
2023/12/24 04:31:02;;;;;;;4.17;1.67;;;9.50;99.90;;;;;;5032370;28;20116;-66
2023/12/24 04:33:29;;;;;;;2.97;1.52;;;9.50;99.90;;;;;;5028579;28;20508;-66
2023/12/24 04:35:54;;;;;;;4.15;1.35;;;9.50;99.90;;;;;;5023535;28;20202;-66
2023/12/24 04:38:20;;;;;;;2.10;1.13;;;9.50;99.90;;;;;;5027034;28;20446;-66
2023/12/24 04:40:46;;;;;;;4.27;1.10;;;9.50;99.90;;;;;;5024951;28;20034;-66
2023/12/24 04:43:11;;;;;;;4.20;1.17;;;9.50;99.90;;;;;;5026654;28;20402;-66
2023/12/24 04:45:37;;;;;;;3.40;0.63;;;9.50;99.90;;;;;;5030903;28;20073;-67
2023/12/24 04:48:03;;;;;;;1.87;0.90;;;9.50;99.90;;;;;;5030393;28;20290;-66
2023/12/24 04:50:29;;;;;;;2.85;0.88;;;9.50;99.90;;;;;;5030403;28;20116;-66
2023/12/24 04:52:55;;;;;;;1.00;0.90;;;9.50;99.90;;;;;;5024808;28;20116;-66
2023/12/24 04:55:20;;;;;;;2.13;0.80;;;9.60;99.90;;;;;;5030169;28;20041;-66
2023/12/24 04:57:46;;;;;;;1.10;0.60;;;9.60;99.90;;;;;;5028358;28;20025;-66
2023/12/24 05:00:12;;;;;;;1.77;0.70;;;9.60;99.90;;;;;;5030931;28;20041;-66
2023/12/24 05:02:38;;;;;;;2.55;0.95;;;9.60;99.90;;;;;;5025227;28;20408;-66
2023/12/24 05:05:04;;;;;;;1.07;0.83;;;9.60;99.90;;;;;;5027907;28;20112;-66
2023/12/24 05:07:30;;;;;;;1.23;0.80;;;9.60;99.90;;;;;;5027715;28;20304;-66
2023/12/24 05:09:56;;;;;;;1.55;0.80;;;9.60;99.90;;;;;;5028431;28;20104;-66
2023/12/24 05:12:22;;;;;;;1.10;0.70;;;9.60;99.90;;;;;;5028962;28;20037;-66
2023/12/24 05:14:47;;;;;;;2.05;0.98;;;9.60;99.90;;;;;;5026906;28;20052;-66
2023/12/24 05:17:13;;;;;;;0.93;0.60;;;9.60;99.90;;;;;;5029954;28;20060;-66
2023/12/24 05:19:39;;;;;;;1.60;0.63;;;9.70;99.90;;;;;;5025491;28;20412;-66
2023/12/24 05:22:04;;;;;;;1.17;0.50;;;9.60;99.90;;;;;;5029821;28;20814;-66
2023/12/24 05:24:30;;;;;;;1.40;0.70;;;9.70;99.90;;;;;;5010693;28;20041;-66
2023/12/24 05:26:55;;;;;;;0.95;0.47;;;9.70;99.90;;;;;;5029951;28;20099;-66
2023/12/24 05:29:21;;;;;;;0.60;0.40;;;9.70;99.90;;;;;;5026624;28;20042;-66
2023/12/24 05:31:47;;;;;;;0.85;0.50;;;9.70;99.90;;;;;;5029634;28;20038;-66
2023/12/24 05:34:12;;;;;;;1.00;0.50;;;9.70;99.90;;;;;;5029046;28;20037;-66
2023/12/24 05:36:39;;;;;;;0.73;0.60;;;9.70;99.90;;;;;;5028493;28;20041;-66
2023/12/24 05:39:06;;;;;;;0.65;0.60;;;9.80;99.90;;;;;;5027638;28;20047;-66
2023/12/24 05:41:32;;;;;;;2.92;0.50;;;9.80;99.90;;;;;;5036695;28;20038;-66
2023/12/24 05:43:58;;;;;;;0.85;0.57;;;9.80;99.90;;;;;;5027808;28;20494;-66
2023/12/24 05:46:25;;;;;;;1.08;0.55;;;9.80;99.90;;;;;;5023471;28;20049;-66
2023/12/24 05:48:50;;;;;;;0.90;0.50;;;9.80;99.90;;;;;;5027256;28;20046;-66
2023/12/24 05:51:16;;;;;;;0.98;0.88;;;9.80;99.90;;;;;;5030586;28;20168;-66
2023/12/24 05:53:42;;;;;;;1.67;0.70;;;9.80;99.90;;;;;;5028446;28;20092;-66
2023/12/24 05:56:08;;;;;;;1.10;0.80;;;9.80;99.90;;;;;;5013540;28;20517;-66
2023/12/24 05:58:34;;;;;;;1.35;0.75;;;9.80;99.90;;;;;;5029274;28;20050;-66
2023/12/24 06:01:00;;;;;;;0.90;0.65;;;9.90;99.90;;;;;;5040091;28;20478;-66
2023/12/24 06:03:25;;;;;;;1.45;0.85;;;9.90;99.90;;;;;;5024129;28;20042;-66
2023/12/24 06:05:51;;;;;;;1.17;0.80;;;9.90;99.90;;;;;;5026860;28;20543;-66
2023/12/24 06:08:17;;;;;;;3.10;1.20;;;9.90;99.90;;;;;;5024964;28;20041;-66
2023/12/24 06:10:44;;;;;;;1.83;0.98;;;9.90;99.90;;;;;;5021966;28;20084;-66
2023/12/24 06:13:10;;;;;;;0.90;0.73;;;9.90;99.90;;;;;;5019367;28;20532;-66
2023/12/24 06:15:36;;;;;;;1.90;1.17;;;9.90;99.90;;;;;;5024696;28;20132;-66
2023/12/24 06:18:01;;;;;;;1.23;0.80;;;9.90;99.90;;;;;;5030660;28;20125;-66
2023/12/24 06:20:31;;;;;;;2.92;1.55;;;10.00;99.90;;;;;;5025134;28;20529;-66
2023/12/24 06:22:56;;;;;;;2.80;1.00;;;10.00;99.90;;;;;;5025463;28;20053;-66
2023/12/24 06:25:22;;;;;;;1.60;1.07;;;10.00;99.90;;;;;;5028948;28;20030;-66
2023/12/24 06:27:48;;;;;;;1.38;0.90;;;10.00;99.90;;;;;;5025004;28;20042;-66
2023/12/24 06:30:14;;;;;;;3.20;1.00;;;10.00;99.90;;;;;;5029433;28;20525;-66
2023/12/24 06:32:41;;;;;;;1.92;1.35;;;10.00;99.90;;;;;;5034558;28;20264;-67
2023/12/24 06:35:09;;;;;;;4.03;2.00;;;10.00;99.90;;;;;;5030211;28;20050;-66
2023/12/24 06:37:34;;;;;;;5.45;1.85;;;10.10;99.90;;;;;;5028538;28;20052;-66
2023/12/24 06:40:00;;;;;;;5.93;2.37;;;10.10;99.90;;;;;;5045894;28;20051;-66
2023/12/24 06:42:26;;;;;;;3.47;2.10;;;10.10;99.90;;;;;;5023790;28;20413;-66
2023/12/24 06:44:51;;;;;;;6.55;2.65;;;10.10;99.90;;;;;;5028950;28;20045;-66
2023/12/24 06:47:17;;;;;;;2.38;2.17;;;10.10;99.90;;;;;;5027242;28;20517;-66
2023/12/24 06:49:44;;;;;;;7.27;2.80;;;10.10;99.90;;;;;;5028680;28;20469;-66
2023/12/24 06:52:10;;;;;;;7.15;3.20;;;10.20;99.90;;;;;;5027794;28;20690;-66
2023/12/24 06:54:36;;;;;;;7.13;2.90;;;10.10;99.90;;;;;;5026991;28;20060;-66
2023/12/24 06:57:03;;;;;;;2.60;2.40;;;10.20;99.90;;;;;;5026632;28;20119;-66
2023/12/24 06:59:29;;;;;;;9.25;2.42;;;10.20;99.90;;;;;;5020401;28;20046;-65
2023/12/24 07:01:54;;;;;;;3.17;2.23;;;10.20;99.90;;;;;;5013416;28;20041;-66
2023/12/24 07:04:20;;;;;;;7.75;3.22;;;10.20;99.90;;;;;;5014569;28;20073;-66
2023/12/24 07:06:46;;;;;;;5.20;3.97;;;10.20;99.90;;;;;;5014617;28;20034;-65
2023/12/24 07:09:12;;;;;;;11.38;4.13;;;10.20;99.90;;;;;;5001240;28;20045;-65
2023/12/24 07:11:38;;;;;;;10.63;4.20;;;10.20;99.90;;;;;;5024009;28;20456;-65
2023/12/24 07:14:03;;;;;;;10.00;4.07;;;10.30;99.90;;;;;;5024016;28;20041;-66
2023/12/24 07:16:29;;;;;;;10.57;5.00;;;10.30;99.90;;;;;;5024555;28;20041;-66
2023/12/24 07:18:55;;;;;;;9.52;4.68;;;10.30;99.90;;;;;;5027162;28;20082;-65
2023/12/24 07:21:20;;;;;;;12.63;4.63;;;10.30;99.90;;;;;;5006302;28;20049;-66
2023/12/24 07:23:46;;;;;;;12.03;4.10;;;10.40;99.90;;;;;;5042619;28;20188;-65
2023/12/24 07:26:12;;;;;;;7.57;4.38;;;10.30;99.90;;;;;;5027407;28;20044;-66
2023/12/24 07:28:38;;;;;;;15.00;5.25;;;10.40;99.90;;;;;;5020439;28;20033;-65
2023/12/24 07:31:04;;;;;;;17.00;4.75;;;10.30;99.90;;;;;;5017590;28;20072;-65
2023/12/24 07:33:29;;;;;;;10.13;4.78;;;10.40;99.90;;;;;;5019315;28;20036;-66
2023/12/24 07:35:55;;;;;;;9.87;5.60;;;10.40;99.90;;;;;;5023849;28;20148;-65
2023/12/24 07:38:21;;;;;;;18.00;5.17;;;10.40;99.90;;;;;;5026538;28;20869;-65
2023/12/24 07:40:46;;;;;;;9.20;4.47;;;10.40;99.90;;;;;;5024936;28;20041;-66
2023/12/24 07:43:12;;;;;;;16.30;4.83;;;10.40;99.90;;;;;;5026847;28;20081;-65
2023/12/24 07:45:37;;;;;;;14.80;5.70;;;10.40;99.90;;;;;;5024151;28;20056;-66
2023/12/24 07:48:03;;;;;;;11.73;4.97;;;10.40;99.90;;;;;;5022218;28;20034;-65
2023/12/24 07:50:29;;;;;;;17.70;5.47;;;10.40;99.90;;;;;;5016432;28;20088;-67
2023/12/24 07:52:55;;;;;;;10.40;3.97;;;10.50;99.90;;;;;;5026205;28;20460;-67
2023/12/24 07:55:20;;;;;;;6.93;4.13;;;10.50;99.90;;;;;;5028133;28;20444;-66
2023/12/24 07:57:46;;;;;;;10.60;4.47;;;10.50;99.90;;;;;;5028956;28;20280;-66
2023/12/24 08:00:12;;;;;;;10.93;4.77;;;10.50;99.90;;;;;;5031578;28;20629;-66
2023/12/24 08:02:38;;;;;;;;;;;10.50;99.90;;;;;;5033207;28;20287;-66
2023/12/24 08:05:04;;;;;;;10.63;4.82;;;10.50;99.90;;;;;;5032744;28;19925;-66
2023/12/24 08:07:30;;;;;;;10.95;5.28;;;10.50;99.90;;;;;;5031853;28;20476;-66
2023/12/24 08:09:56;;;;;;;17.60;5.93;;;10.50;99.90;;;;;;5033357;28;20054;-66
2023/12/24 08:12:22;;;;;;;18.30;5.68;;;10.50;99.90;;;;;;5043735;28;20370;-66
2023/12/24 08:14:47;;;;;;;13.33;6.10;;;10.60;99.90;;;;;;5032007;28;20112;-66
2023/12/24 08:17:13;;;;;;;14.77;6.07;;;10.50;99.90;;;;;;5032864;28;20310;-66
2023/12/24 08:19:38;;;;;;;19.20;5.50;;;10.60;99.90;;;;;;5031687;28;20038;-67
2023/12/24 08:22:04;;;;;;;25.13;7.37;;;10.60;99.90;;;;;;5031178;28;20291;-66
2023/12/24 08:24:30;;;;;;;19.23;6.60;;;10.60;99.90;;;;;;5028493;28;20311;-66
2023/12/24 08:26:55;;;;;;;13.93;6.13;;;10.60;99.90;;;;;;5032683;28;20276;-66
2023/12/24 08:29:21;;;;;;;17.97;6.80;;;10.60;99.90;;;;;;5032848;28;20038;-66
2023/12/24 08:31:46;;;;;;;25.60;6.87;;;10.60;99.90;;;;;;5032167;28;20276;-66
2023/12/24 08:34:12;;;;;;;26.37;7.10;;;10.60;99.90;;;;;;5031995;28;20049;-66
2023/12/24 08:36:38;;;;;;;16.40;6.70;;;10.70;99.90;;;;;;5032454;28;20275;-66
2023/12/24 08:39:04;;;;;;;26.27;7.60;;;10.60;99.90;;;;;;5031282;28;20060;-68
2023/12/24 08:41:30;;;;;;;18.23;6.97;;;10.70;99.90;;;;;;5032463;28;20038;-67
2023/12/24 08:43:55;;;;;;;18.60;6.37;;;10.70;99.90;;;;;;5031846;28;20072;-67
2023/12/24 08:46:21;;;;;;;21.02;5.53;;;10.70;99.90;;;;;;5029627;28;20026;-67
2023/12/24 08:48:46;;;;;;;19.67;5.83;;;10.70;99.90;;;;;;5016946;28;20037;-66
2023/12/24 08:51:12;;;;;;;14.70;6.57;;;10.70;99.90;;;;;;5026185;28;20276;-67
2023/12/24 08:53:39;;;;;;;24.35;6.25;;;10.70;99.90;;;;;;5027672;28;20112;-66
2023/12/24 08:56:05;;;;;;;20.40;6.00;;;10.70;99.90;;;;;;5027299;28;20065;-67
2023/12/24 08:58:31;;;;;;;17.67;5.75;;;10.80;99.90;;;;;;5022206;28;20069;-67
2023/12/24 09:00:56;;;;;;;16.70;5.20;;;10.80;99.90;;;;;;5027236;28;20069;-67
2023/12/24 09:03:22;;;;;;;18.37;6.00;;;10.80;99.90;;;;;;5026302;28;20124;-66
2023/12/24 09:05:47;;;;;;;17.00;5.37;;;10.80;99.90;;;;;;5031729;28;20280;-65
2023/12/24 09:08:13;;;;;;;22.00;5.00;;;10.80;99.90;;;;;;5032243;28;20132;-65
2023/12/24 09:10:41;;;;;;;26.00;5.37;;;10.90;99.90;;;;;;5036932;28;20714;-65
2023/12/24 09:13:06;;;;;;;13.70;5.35;;;10.80;99.90;;;;;;5029497;28;20468;-64
2023/12/24 09:15:32;;;;;;;14.63;4.63;;;10.90;99.90;;;;;;5031366;28;20033;-64
2023/12/24 09:17:57;;;;;;;10.02;4.10;;;10.90;99.90;;;;;;5030445;28;20280;-64
2023/12/24 09:20:23;;;;;;;10.05;4.03;;;10.90;99.90;;;;;;5022743;28;20420;-64
2023/12/24 09:22:49;;;;;;;14.43;4.40;;;10.90;99.90;;;;;;5026250;28;20077;-65
2023/12/24 09:25:14;;;;;;;11.37;3.77;;;10.90;99.90;;;;;;5014894;28;20041;-64
2023/12/24 09:27:40;;;;;;;11.07;3.70;;;10.90;99.90;;;;;;5028116;28;20276;-64
2023/12/24 09:30:06;;;;;;;6.33;2.57;;;11.00;99.90;;;;;;5028519;28;20045;-63
2023/12/24 09:32:32;;;;;;;;;;;11.00;99.90;;;;;;5028566;28;20280;-64
2023/12/24 09:34:58;;;;;;;11.43;3.55;;;11.00;99.90;;;;;;5030962;28;19947;-64
2023/12/24 09:37:25;;;;;;;7.43;2.97;;;11.00;99.90;;;;;;5021532;28;20049;-65
2023/12/24 09:39:52;;;;;;;9.90;2.92;;;11.00;99.90;;;;;;5029545;28;20088;-64
2023/12/24 09:42:18;;;;;;;8.10;2.90;;;11.00;99.90;;;;;;5025914;28;20084;-64
2023/12/24 09:44:44;;;;;;;9.50;2.50;;;11.00;99.90;;;;;;5023695;28;20124;-64
2023/12/24 09:47:10;;;;;;;;;;;11.10;99.90;;;;;;5026016;28;20033;-65
2023/12/24 09:49:35;;;;;;;6.57;2.53;;;11.10;99.90;;;;;;5025628;28;20027;-65
2023/12/24 09:52:02;;;;;;;7.77;2.57;;;11.10;99.90;;;;;;5030315;28;20131;-65
2023/12/24 09:54:28;;;;;;;12.82;3.28;;;11.10;99.90;;;;;;5026414;28;20567;-65
2023/12/24 09:56:55;;;;;;;12.50;3.77;;;11.10;99.90;;;;;;5030796;28;20040;-65
2023/12/24 09:59:21;;;;;;;6.32;3.35;;;11.10;99.90;;;;;;5030679;28;20041;-65
2023/12/24 10:01:46;;;;;;;9.93;3.30;;;11.10;99.90;;;;;;5030791;28;20564;-65
2023/12/24 10:04:13;;;;;;;15.45;4.53;;;11.10;99.90;;;;;;5030656;28;20076;-65
2023/12/24 10:06:56;;;;;;;9.43;4.40;;;11.20;99.90;;;;;;5029214;28;20041;-65
2023/12/24 10:09:24;;;;;;;13.25;3.90;;;11.20;99.90;;;;;;5031043;28;20048;-64
2023/12/24 10:12:06;;;;;;;9.52;3.80;;;11.20;99.90;;;;;;5030700;28;20044;-65
2023/12/24 10:14:32;;;;;;;14.95;5.05;;;11.20;99.90;;;;;;5030106;28;20040;-65
2023/12/24 10:17:00;;;;;;;16.42;5.30;;;11.20;99.90;;;;;;5030538;28;20034;-65
2023/12/24 10:19:27;;;;;;;12.32;5.65;;;11.20;99.90;;;;;;5030827;28;20389;-64
2023/12/24 10:21:59;;;;;;;14.23;5.03;;;11.30;99.90;;;;;;5022027;28;20060;-65
2023/12/24 10:24:25;;;;;;;20.75;4.68;;;11.30;99.90;;;;;;5019418;28;20172;-65
2023/12/24 10:27:04;;;;;;;17.48;5.57;;;11.30;99.90;;;;;;5029028;28;20276;-64
2023/12/24 10:29:30;;;;;;;12.50;4.65;;;11.30;99.90;;;;;;5025906;28;20041;-64
2023/12/24 10:31:56;;;;;;;16.08;5.80;;;11.30;99.90;;;;;;5029486;28;20667;-64
2023/12/24 11:07:04;;;;;;;10.77;4.32;;;11.40;99.90;;;;;;5039262;27;20442;-64
2023/12/24 11:09:29;;;;;;;12.73;4.80;;;11.50;99.90;;;;;;5042778;28;20038;-64
2023/12/24 11:11:56;;;;;;;14.50;5.67;;;11.50;99.90;;;;;;5031601;28;20038;-64
2023/12/24 11:14:41;;;;;;;16.33;4.80;;;11.50;99.90;;;;;;5025912;28;20048;-64
2023/12/24 11:17:31;;;;;;;16.00;4.43;;;11.50;99.90;;;;;;5024097;28;20098;-65
2023/12/24 11:20:19;;;;;;;20.63;4.35;;;11.60;99.90;;;;;;5018583;28;20077;-64
2023/12/24 11:23:03;;;;;;;12.52;4.38;;;11.60;99.90;;;;;;5025717;28;20073;-64
2023/12/24 11:25:38;;;;;;;12.27;5.07;;;11.60;99.90;;;;;;5022874;28;20436;-64
2023/12/24 11:28:05;;;;;;;22.20;5.63;;;11.70;99.90;;;;;;5025744;28;20038;-64
2023/12/24 11:30:49;;;;;;;16.77;5.47;;;11.70;99.90;;;;;;5019214;28;20064;-65
2023/12/24 11:33:33;;;;;;;20.42;5.70;;;11.70;99.90;;;;;;5027522;28;20030;-64
2023/12/24 11:36:00;;;;;;;19.20;6.00;;;11.70;99.90;;;;;;5024195;28;20567;-64
2023/12/24 11:38:35;;;;;;;16.85;6.13;;;11.70;99.90;;;;;;5023034;28;20041;-64
2023/12/24 11:41:28;;;;;;;19.05;5.75;;;11.80;99.90;;;;;;5016598;28;20091;-65
2023/12/24 11:43:56;;;;;;;19.38;5.88;;;11.80;99.90;;;;;;5022369;28;20121;-66
2023/12/24 11:46:23;;;;;;;15.43;5.03;;;11.80;99.90;;;;;;5024798;28;20116;-65
2023/12/24 11:48:49;;;;;;;12.48;4.55;;;11.80;99.90;;;;;;5024790;28;20081;-65
2023/12/24 11:51:15;;;;;;;16.15;5.38;;;11.80;99.90;;;;;;5042277;28;20417;-65
2023/12/24 11:53:41;;;;;;;12.38;4.10;;;11.80;99.90;;;;;;5025589;28;20057;-65
2023/12/24 11:56:15;;;;;;;15.13;4.72;;;11.90;99.90;;;;;;5022040;28;20069;-65
2023/12/24 11:58:48;;;;;;;16.63;4.72;;;11.90;99.90;;;;;;5025309;28;20631;-65
2023/12/24 12:01:19;;;;;;;17.23;4.93;;;11.90;99.90;;;;;;5025219;28;20068;-65
2023/12/24 12:03:45;;;;;;;20.83;4.85;;;11.80;99.90;;;;;;5021273;28;20038;-65
2023/12/24 12:06:10;;;;;;;18.27;4.47;;;11.90;99.90;;;;;;5022217;28;20092;-65
2023/12/24 12:08:36;;;;;;;17.67;5.30;;;11.90;99.90;;;;;;5010321;28;20086;-65
2023/12/24 12:11:01;;;;;;;11.87;4.03;;;11.90;99.90;;;;;;5011104;28;20292;-65
2023/12/24 12:13:28;;;;;;;13.23;3.92;;;11.90;99.90;;;;;;5010697;28;20134;-65
2023/12/24 12:15:54;;;;;;;12.30;4.70;;;11.80;99.90;;;;;;5008378;28;20537;-65
2023/12/24 12:18:20;;;;;;;9.75;3.88;;;11.80;99.90;;;;;;5010701;28;20033;-65
2023/12/24 12:20:47;;;;;;;14.52;3.80;;;11.80;99.90;;;;;;5008119;28;20073;-65
2023/12/24 12:23:16;;;;;;;10.55;3.95;;;11.90;99.90;;;;;;5012271;28;20460;-65
2023/12/24 12:25:43;;;;;;;14.00;4.13;;;11.90;99.90;;;;;;5033238;28;20103;-65
2023/12/24 12:28:09;;;;;;;19.02;3.85;;;11.90;99.90;;;;;;5010440;28;20501;-65
2023/12/24 12:30:34;;;;;;;12.43;2.60;;;11.90;99.90;;;;;;5012217;28;20057;-65
2023/12/24 12:33:00;;;;;;;10.23;2.97;;;12.00;99.90;;;;;;5008279;28;20041;-64
2023/12/24 12:35:26;;;;;;;13.10;3.47;;;12.00;99.90;;;;;;5012040;28;20307;-65
2023/12/24 12:37:52;;;;;;;13.90;2.95;;;12.00;99.90;;;;;;5010154;28;20042;-64
2023/12/24 12:40:17;;;;;;;11.82;2.53;;;12.00;99.90;;;;;;5006415;28;20203;-65
2023/12/24 12:42:43;;;;;;;7.25;2.47;;;12.00;99.90;;;;;;4998028;28;20113;-63
2023/12/24 12:45:09;;;;;;;11.18;2.13;;;12.00;99.90;;;;;;5005679;28;20333;-64
2023/12/24 12:47:35;;;;;;;10.88;2.55;;;12.00;99.90;;;;;;5011741;28;20428;-66
2023/12/24 12:50:01;;;;;;;8.00;2.08;;;12.10;99.90;;;;;;5011646;28;20105;-66
2023/12/24 12:52:26;;;;;;;6.68;1.90;;;12.00;99.90;;;;;;5011624;28;20044;-66
2023/12/24 12:55:07;;;;;;;10.13;2.17;;;12.00;99.90;;;;;;5009187;28;20092;-65
2023/12/24 12:57:38;;;;;;;6.03;1.85;;;12.00;99.90;;;;;;5009245;28;20652;-65
2023/12/24 13:00:13;;;;;;;6.88;1.67;;;12.00;99.90;;;;;;5009471;28;20048;-64
2023/12/24 13:02:40;;;;;;;4.88;1.70;;;12.00;99.90;;;;;;5007368;28;20069;-64
2023/12/24 13:05:25;;;;;;;7.55;1.55;;;12.00;99.90;;;;;;5009153;28;21909;-64
2023/12/24 13:07:51;;;;;;;7.07;2.08;;;12.00;99.90;;;;;;5008799;28;20069;-64
2023/12/24 13:10:30;;;;;;;9.52;2.20;;;12.00;99.90;;;;;;5008816;28;20100;-66
2023/12/24 13:38:54;;;;;;;14.65;4.60;;;11.90;99.90;;;;;;5073588;27;20924;-66
2023/12/24 13:41:20;;;;;;;15.18;4.93;;;12.00;99.90;;;;;;5042582;28;20072;-66
2023/12/24 13:43:46;;;;;;;18.90;3.72;;;12.00;99.90;;;;;;5040719;28;20117;-67